Time;durP1;ratioP1;P1;durP2;ratioP2;P2;SDS_P1;SDS_P2;PMS_P1;PMS_P2;Temp;Humidity;BMP_temperature;BMP_pressure;BME280_temperature;BME280_humidity;BME280_pressure;Samples;Min_cycle;Max_cycle;Signal;HPM_P1;HPM_P2
2022/12/15 00:39:39;;;;;;;159.10;47.10;;;;;;;-6.83;80.82;99565.20;106622;1235;112425;-76
2022/12/15 00:42:06;;;;;;;147.00;44.90;;;;;;;-6.86;80.71;99565.17;106743;1235;139005;-75
2022/12/15 00:44:31;;;;;;;147.70;45.20;;;;;;;-6.89;80.81;99570.18;106816;1237;97630;-75
2022/12/15 00:46:56;;;;;;;139.30;42.50;;;;;;;-6.90;80.96;99575.21;106600;1232;97729;-76
2022/12/15 01:22:31;;;;;;;149.70;46.60;;;;;;;-7.02;80.91;99574.06;106711;1244;106031;-77
2022/12/15 01:24:56;;;;;;;149.00;48.40;;;;;;;-7.03;80.91;99576.83;106603;1235;139174;-75
2022/12/15 01:27:21;;;;;;;151.50;46.50;;;;;;;-7.03;80.91;99578.55;106765;1238;96288;-75
2022/12/15 01:29:47;;;;;;;159.40;47.10;;;;;;;-7.00;81.12;99579.80;106713;1244;97704;-76
2022/12/15 01:32:12;;;;;;;156.00;51.10;;;;;;;-6.97;81.16;99582.27;106578;1229;138649;-76
2022/12/15 01:34:38;;;;;;;159.40;46.90;;;;;;;-6.96;81.04;99585.91;106710;1229;97688;-76
2022/12/15 01:37:03;;;;;;;141.90;47.00;;;;;;;-6.95;81.20;99587.14;106612;1237;138551;-76
2022/12/15 01:40:43;;;;;;;149.40;47.40;;;;;;;-6.95;81.16;99589.40;106584;1232;97749;-76
2022/12/15 01:42:14;;;;;;;147.60;45.00;;;;;;;-6.96;81.08;99589.57;106534;1237;139413;-75
2022/12/15 01:44:39;;;;;;;165.80;49.20;;;;;;;-6.98;81.02;99594.23;106643;1236;97682;-76
2022/12/15 01:47:09;;;;;;;145.30;47.90;;;;;;;-7.02;80.93;99597.84;106805;1245;97943;-75
2022/12/15 01:49:34;;;;;;;95.10;29.20;;;;;;;-7.07;80.95;99595.88;106472;1246;138579;-76
2022/12/15 01:52:03;;;;;;;152.80;49.40;;;;;;;-7.09;80.97;99599.86;106677;1229;98571;-76
2022/12/15 01:54:37;;;;;;;153.10;48.00;;;;;;;-7.11;81.03;99601.91;106664;1229;138850;-75
2022/12/15 01:57:13;;;;;;;163.40;51.50;;;;;;;-7.13;81.02;99599.11;106633;1229;111795;-76
2022/12/15 01:59:44;;;;;;;163.10;50.90;;;;;;;-7.15;80.92;99599.79;106655;1232;99778;-75
2022/12/15 02:02:13;;;;;;;173.80;53.70;;;;;;;-7.17;81.09;99608.79;106452;1237;138538;-76
2022/12/15 02:04:40;;;;;;;168.00;48.80;;;;;;;-7.18;81.05;99614.84;106750;1236;96573;-76
2022/12/15 02:07:06;;;;;;;165.60;46.30;;;;;;;-7.21;80.99;99616.73;106478;1244;138742;-74
2022/12/15 02:09:31;;;;;;;170.90;52.70;;;;;;;-7.25;81.00;99620.33;106632;1239;96538;-76
2022/12/15 02:12:09;;;;;;;159.40;50.80;;;;;;;-7.28;81.04;99620.64;106786;1243;97629;-76
2022/12/15 02:15:10;;;;;;;152.70;50.50;;;;;;;-7.31;80.87;99620.60;106706;1238;97674;-75
2022/12/15 02:18:01;;;;;;;177.90;51.80;;;;;;;-7.34;80.99;99618.84;106694;1239;97718;-75
2022/12/15 02:20:41;;;;;;;160.80;52.20;;;;;;;-7.37;80.97;99616.55;106528;1229;138521;-76
2022/12/15 02:23:10;;;;;;;152.00;49.20;;;;;;;-7.36;81.07;99619.32;106741;1237;99640;-75
2022/12/15 02:26:04;;;;;;;168.90;51.50;;;;;;;-7.39;80.86;99623.30;106487;1229;138561;-76
2022/12/15 02:29:03;;;;;;;165.10;48.70;;;;;;;-7.43;81.03;99628.26;106697;1231;97756;-76
2022/12/15 02:31:48;;;;;;;158.30;47.60;;;;;;;-7.48;81.01;99634.45;106700;1243;138498;-76
2022/12/15 02:34:34;;;;;;;147.10;47.00;;;;;;;-7.51;80.96;99638.23;106704;1235;110457;-76
2022/12/15 02:37:06;;;;;;;156.50;48.00;;;;;;;-7.52;80.98;99645.34;106517;1244;138778;-76
2022/12/15 02:39:32;;;;;;;163.80;49.40;;;;;;;-7.54;81.01;99645.14;106752;1238;108555;-76
2022/12/15 02:41:57;;;;;;;148.50;45.60;;;;;;;-7.53;81.10;99648.09;106848;1243;97615;-76
2022/12/15 02:44:37;;;;;;;168.20;50.80;;;;;;;-7.55;81.09;99649.47;106635;1249;138559;-76
2022/12/15 02:47:44;;;;;;;194.70;54.10;;;;;;;-7.57;80.92;99652.02;106823;1238;98623;-76
2022/12/15 02:50:22;;;;;;;160.20;48.70;;;;;;;-7.58;81.15;99659.30;106693;1230;138661;-76
2022/12/15 02:53:09;;;;;;;167.80;50.10;;;;;;;-7.60;81.09;99658.23;106746;1245;97650;-76
2022/12/15 02:55:50;;;;;;;153.60;48.00;;;;;;;-7.62;81.08;99656.48;106658;1252;139187;-76
2022/12/15 02:58:29;;;;;;;167.60;50.60;;;;;;;-7.64;81.11;99648.81;106748;1243;111941;-75
2022/12/15 03:01:13;;;;;;;146.50;47.00;;;;;;;-7.67;81.06;99647.73;106543;1238;139003;-76
2022/12/15 03:03:40;;;;;;;167.30;48.80;;;;;;;-7.69;81.10;99650.14;106775;1235;109808;-76
2022/12/15 03:06:06;;;;;;;158.80;48.80;;;;;;;-7.71;80.99;99654.27;106651;1232;96411;-76
2022/12/15 03:08:31;;;;;;;166.40;49.40;;;;;;;-7.77;80.92;99656.27;106625;1233;138463;-76
2022/12/15 03:10:57;;;;;;;158.10;50.40;;;;;;;-7.82;81.00;99662.30;106851;1244;97572;-76
2022/12/15 03:13:24;;;;;;;166.40;50.00;;;;;;;-7.84;81.18;99666.77;106499;1236;138620;-76
2022/12/15 03:15:51;;;;;;;170.20;50.40;;;;;;;-7.83;81.05;99663.33;106681;1245;97734;-77
2022/12/15 03:18:16;;;;;;;162.40;49.60;;;;;;;-7.81;81.15;99665.61;106414;1228;139506;-76
2022/12/15 03:20:42;;;;;;;150.70;49.00;;;;;;;-7.81;81.11;99669.60;106739;1233;98321;-76
2022/12/15 03:23:07;;;;;;;162.40;47.80;;;;;;;-7.79;81.25;99672.37;106672;1243;97766;-75
2022/12/15 03:25:32;;;;;;;161.50;50.80;;;;;;;-7.79;81.20;99672.55;106634;1244;138574;-77
2022/12/15 03:27:58;;;;;;;160.10;48.70;;;;;;;-7.80;81.26;99670.46;106697;1236;97729;-76
2022/12/15 03:30:23;;;;;;;162.30;48.20;;;;;;;-7.80;80.99;99669.08;106644;1235;138711;-76
2022/12/15 03:32:48;;;;;;;176.50;49.30;;;;;;;-7.78;81.08;99666.48;106753;1244;98846;-76
2022/12/15 03:35:14;;;;;;;153.00;49.70;;;;;;;-7.79;81.13;99667.35;106854;1244;96648;-77
2022/12/15 03:37:41;;;;;;;171.30;49.40;;;;;;;-7.80;81.32;99668.39;106551;1238;138772;-77
2022/12/15 03:40:07;;;;;;;151.20;49.40;;;;;;;-7.83;81.22;99666.27;106859;1230;97839;-76
2022/12/15 03:42:48;;;;;;;169.60;50.00;;;;;;;-7.84;81.01;99670.59;106745;1230;139056;-76
2022/12/15 03:45:27;;;;;;;;;;;;;;;-7.86;81.25;99681.48;106712;1236;97849;-76
2022/12/15 03:47:54;;;;;;;163.10;47.70;;;;;;;-7.87;81.36;99688.93;106763;1235;110701;-76
2022/12/15 03:50:22;;;;;;;181.10;53.60;;;;;;;-7.88;81.28;99692.39;106679;1229;138776;-77
2022/12/15 03:52:52;;;;;;;181.40;53.40;;;;;;;-7.90;81.28;99696.35;106747;1245;105890;-76
2022/12/15 03:55:18;;;;;;;157.80;47.30;;;;;;;-7.89;81.46;99705.20;106500;1246;138713;-76
2022/12/15 03:57:44;;;;;;;167.30;51.60;;;;;;;-7.89;81.29;99706.58;106639;1241;97721;-75
2022/12/15 04:00:13;;;;;;;174.90;52.40;;;;;;;-7.88;81.42;99710.23;106685;1236;139492;-74
2022/12/15 04:02:40;;;;;;;161.60;54.80;;;;;;;-7.88;81.25;99709.56;106861;1229;105793;-75
2022/12/15 04:05:06;;;;;;;183.20;51.70;;;;;;;-7.88;81.22;99709.73;106670;1231;98442;-75
2022/12/15 04:07:31;;;;;;;188.50;54.30;;;;;;;-7.90;81.32;99712.29;106702;1243;138776;-76
2022/12/15 04:09:57;;;;;;;164.40;49.70;;;;;;;-7.91;81.20;99716.95;106765;1236;97723;-76
2022/12/15 04:12:22;;;;;;;162.70;51.50;;;;;;;-7.95;81.23;99723.30;106523;1229;139372;-76
2022/12/15 04:14:47;;;;;;;154.00;51.80;;;;;;;-7.99;81.08;99726.88;106865;1236;97658;-75
2022/12/15 04:17:13;;;;;;;154.40;50.40;;;;;;;-8.02;81.20;99729.09;106766;1243;96066;-75
2022/12/15 04:22:23;;;;;;;162.80;50.40;;;;;;;-8.05;81.21;99726.09;106669;1238;107597;-76
2022/12/15 05:33:17;;;;;;;217.80;70.80;;;;;;;-8.17;81.60;99824.31;106701;1229;98423;-75
2022/12/15 05:35:43;;;;;;;212.20;67.00;;;;;;;-8.20;81.52;99826.02;106723;1238;97719;-75
2022/12/15 05:38:08;;;;;;;245.00;71.90;;;;;;;-8.21;81.62;99836.39;106702;1243;138519;-75
2022/12/15 05:40:33;;;;;;;222.50;66.90;;;;;;;-8.21;81.62;99848.69;106651;1238;97716;-76
2022/12/15 05:42:59;;;;;;;201.70;60.00;;;;;;;-8.21;81.38;99857.71;106546;1230;138913;-75
2022/12/15 05:45:25;;;;;;;192.40;61.00;;;;;;;-8.21;81.67;99861.69;106722;1236;97619;-75
2022/12/15 05:47:51;;;;;;;214.80;62.90;;;;;;;-8.21;81.75;99868.09;106613;1244;97747;-76
2022/12/15 05:50:17;;;;;;;198.40;61.80;;;;;;;-8.21;81.68;99868.63;106381;1239;138561;-75
2022/12/15 05:52:42;;;;;;;223.50;64.50;;;;;;;-8.21;81.70;99871.91;106855;1237;97740;-76
2022/12/15 05:55:08;;;;;;;213.80;63.00;;;;;;;-8.21;81.74;99871.22;106626;1233;138557;-76
2022/12/15 05:57:33;;;;;;;200.50;59.20;;;;;;;-8.21;81.75;99877.11;106619;1233;96504;-76
2022/12/15 05:59:59;;;;;;;211.70;62.90;;;;;;;-8.22;81.77;99879.35;106746;1235;97667;-76
2022/12/15 06:02:24;;;;;;;209.50;63.40;;;;;;;-8.22;81.75;99885.77;106483;1239;138733;-76
2022/12/15 06:04:49;;;;;;;218.20;63.20;;;;;;;-8.23;81.70;99886.09;106831;1235;97684;-76
2022/12/15 06:07:15;;;;;;;204.90;60.80;;;;;;;-8.22;81.83;99886.80;106595;1243;138576;-77
2022/12/15 06:09:40;;;;;;;197.00;64.40;;;;;;;-8.22;81.66;99883.85;106797;1238;97293;-75
2022/12/15 06:12:05;;;;;;;206.00;63.00;;;;;;;-8.22;81.79;99881.08;106604;1232;97804;-79
2022/12/15 06:14:30;;;;;;;182.00;48.40;;;;;;;-8.24;81.89;99879.83;106533;1229;138599;-80
2022/12/15 06:16:56;;;;;;;219.80;62.50;;;;;;;-8.28;81.54;99889.63;106508;1242;97686;-76
2022/12/15 06:19:21;;;;;;;190.00;50.80;;;;;;;-8.31;81.60;99895.98;106509;1252;139104;-76
2022/12/15 06:21:46;;;;;;;199.00;58.80;;;;;;;-8.34;81.80;99899.59;106603;1231;99399;-76
2022/12/15 06:24:12;;;;;;;195.60;60.10;;;;;;;-8.36;81.58;99900.94;106597;1236;97735;-77
2022/12/15 06:26:38;;;;;;;196.40;56.70;;;;;;;-8.37;81.75;99904.90;106634;1251;139337;-77
2022/12/15 06:29:08;;;;;;;202.10;60.80;;;;;;;-8.38;81.78;99910.08;106585;1230;112336;-77
2022/12/15 06:31:34;;;;;;;186.90;56.70;;;;;;;-8.38;81.83;99911.98;106542;1243;139233;-77
2022/12/15 06:34:03;;;;;;;203.00;57.50;;;;;;;-8.38;81.88;99917.17;106634;1236;97632;-76
2022/12/15 06:36:29;;;;;;;211.40;63.50;;;;;;;-8.38;81.72;99916.48;106471;1246;139041;-74
2022/12/15 06:38:57;;;;;;;180.60;55.50;;;;;;;-8.38;81.93;99920.64;106870;1252;96319;-76
2022/12/15 06:41:23;;;;;;;163.10;54.10;;;;;;;-8.39;81.68;99922.70;106679;1228;97704;-75
2022/12/15 06:43:56;;;;;;;174.60;55.40;;;;;;;-8.40;81.88;99927.87;106567;1246;138964;-78
2022/12/15 06:46:23;;;;;;;190.30;59.10;;;;;;;-8.41;81.82;99936.16;106662;1237;107372;-75
2022/12/15 06:48:49;;;;;;;202.70;61.30;;;;;;;-8.42;81.88;99936.51;106377;1235;139407;-73
2022/12/15 06:51:16;;;;;;;197.00;62.70;;;;;;;-8.42;81.71;99938.56;106434;1237;98679;-75
2022/12/15 06:53:47;;;;;;;191.90;60.50;;;;;;;-8.41;82.04;99938.77;106756;1235;97790;-74
2022/12/15 06:56:19;;;;;;;198.70;61.10;;;;;;;-8.41;81.92;99937.05;106495;1233;139286;-74
2022/12/15 06:58:47;;;;;;;183.20;54.10;;;;;;;-8.41;81.98;99945.17;107135;1237;97618;-75
2022/12/15 07:01:12;;;;;;;187.40;52.00;;;;;;;-8.40;82.03;99949.34;106486;1237;139086;-75
2022/12/15 07:03:38;;;;;;;204.10;60.60;;;;;;;-8.43;81.89;99958.48;106602;1243;97715;-75
2022/12/15 07:06:07;;;;;;;219.60;57.20;;;;;;;-8.48;81.86;99963.56;106636;1238;98935;-70
2022/12/15 07:08:35;;;;;;;219.00;63.80;;;;;;;-8.53;81.64;99965.20;106397;1236;138690;-74
2022/12/15 07:11:06;;;;;;;235.40;68.40;;;;;;;-8.56;81.83;99969.61;106453;1235;97936;-73
2022/12/15 07:13:31;;;;;;;179.10;56.10;;;;;;;-8.59;81.79;99974.41;106450;1237;138938;-74
2022/12/15 07:15:59;;;;;;;213.80;66.10;;;;;;;-8.63;81.86;99972.59;106429;1236;97725;-75
2022/12/15 07:18:25;;;;;;;181.10;53.00;;;;;;;-8.66;81.77;99971.48;106718;1235;139578;-74
2022/12/15 07:20:50;;;;;;;222.20;63.70;;;;;;;-8.69;81.90;99976.95;106598;1236;97811;-76
2022/12/15 07:23:15;;;;;;;202.60;61.10;;;;;;;-8.66;81.90;99982.73;106708;1243;112645;-74
2022/12/15 07:25:41;;;;;;;207.50;63.50;;;;;;;-8.64;81.99;99981.39;106451;1236;139157;-75
2022/12/15 07:28:07;;;;;;;218.20;64.40;;;;;;;-8.63;82.13;99983.48;106613;1235;96563;-75
2022/12/15 07:30:34;;;;;;;221.70;68.80;;;;;;;-8.64;81.97;99989.02;106630;1235;139354;-74
2022/12/15 07:32:59;;;;;;;228.80;68.80;;;;;;;-8.69;81.83;99990.45;106573;1236;96391;-75
2022/12/15 07:35:25;;;;;;;221.20;66.20;;;;;;;-8.73;81.98;99989.34;106672;1236;97784;-77
2022/12/15 07:37:50;;;;;;;225.50;66.50;;;;;;;-8.74;81.78;99993.80;106302;1232;139115;-76
2022/12/15 07:40:16;;;;;;;259.40;76.30;;;;;;;-8.75;82.09;100006.41;106558;1232;97749;-75
2022/12/15 07:42:41;;;;;;;237.90;71.50;;;;;;;-8.76;82.07;100006.90;106540;1229;139380;-76
2022/12/15 07:45:08;;;;;;;249.50;69.20;;;;;;;-8.75;82.04;100010.91;106341;1237;97904;-75
2022/12/15 07:47:34;;;;;;;267.80;75.30;;;;;;;-8.74;82.03;100012.33;106692;1235;97696;-76
2022/12/15 07:50:00;;;;;;;275.50;80.50;;;;;;;-8.71;82.09;100013.08;106625;1235;141184;-76
2022/12/15 07:52:25;;;;;;;225.20;63.60;;;;;;;-8.69;82.11;100021.61;106797;1243;97693;-76
2022/12/15 07:54:51;;;;;;;242.30;77.30;;;;;;;-8.69;82.02;100018.85;106631;1237;139238;-75
2022/12/15 07:57:17;;;;;;;250.60;70.80;;;;;;;-8.65;82.12;100023.09;106679;1237;97744;-76
2022/12/15 07:59:42;;;;;;;265.00;78.20;;;;;;;-8.61;82.28;100021.80;106480;1237;111712;-75
2022/12/15 08:02:12;;;;;;;268.10;80.40;;;;;;;-8.57;82.43;100017.23;106473;1234;139193;-75
2022/12/15 08:04:38;;;;;;;229.90;69.30;;;;;;;-8.51;82.58;100018.74;106572;1237;107799;-76
2022/12/15 08:07:04;;;;;;;228.60;73.00;;;;;;;-8.45;82.49;100026.17;106595;1236;139351;-76
2022/12/15 08:09:35;;;;;;;223.30;68.50;;;;;;;-8.39;82.54;100034.11;106884;1237;97675;-76
2022/12/15 08:12:01;;;;;;;249.70;73.60;;;;;;;-8.32;82.64;100038.91;106684;1234;100328;-75
2022/12/15 08:14:28;;;;;;;207.70;61.20;;;;;;;-8.26;82.58;100043.20;106648;1236;139204;-75
2022/12/15 08:16:53;;;;;;;221.50;68.60;;;;;;;-8.19;82.59;100040.58;106542;1237;97737;-75
2022/12/15 08:19:19;;;;;;;230.70;69.80;;;;;;;-8.15;82.45;100038.05;106692;1237;139157;-75
2022/12/15 08:21:45;;;;;;;224.50;69.30;;;;;;;-8.11;82.84;100042.66;106637;1244;97696;-76
2022/12/15 08:24:12;;;;;;;229.70;72.80;;;;;;;-8.07;82.56;100040.48;106552;1234;97769;-77
2022/12/15 08:26:39;;;;;;;226.80;69.70;;;;;;;-8.03;82.72;100042.33;106560;1238;139052;-77
2022/12/15 08:29:07;;;;;;;230.90;69.80;;;;;;;-7.98;82.81;100045.19;106666;1230;97696;-78
2022/12/15 08:31:33;;;;;;;202.40;63.30;;;;;;;-7.93;82.65;100051.01;106384;1227;139082;-77
2022/12/15 08:34:00;;;;;;;212.90;65.80;;;;;;;-7.89;82.64;100053.18;106589;1237;96607;-78
2022/12/15 08:36:26;;;;;;;219.00;68.10;;;;;;;-7.84;82.69;100058.30;106321;1236;139211;-77
2022/12/15 08:38:54;;;;;;;232.10;70.10;;;;;;;-7.80;82.78;100060.11;106982;1235;98110;-77
2022/12/15 08:41:22;;;;;;;252.10;73.90;;;;;;;-7.76;82.87;100060.70;106572;1234;100459;-76
2022/12/15 08:43:48;;;;;;;243.00;74.00;;;;;;;-7.73;82.74;100072.21;106572;1238;138366;-76
2022/12/15 08:46:15;;;;;;;259.50;76.70;;;;;;;-7.68;82.85;100077.15;106659;1241;97630;-80
2022/12/15 08:48:41;;;;;;;265.50;81.50;;;;;;;-7.64;82.84;100080.37;106532;1236;139320;-79
2022/12/15 08:51:07;;;;;;;237.10;76.40;;;;;;;-7.59;82.82;100079.60;106574;1246;98852;-78
2022/12/15 08:53:32;;;;;;;257.90;77.10;;;;;;;-7.54;82.93;100084.92;106652;1233;106799;-78
2022/12/15 08:56:06;;;;;;;236.40;74.40;;;;;;;-7.47;83.00;100090.94;106325;1235;139389;-77
2022/12/15 08:58:32;;;;;;;249.20;75.20;;;;;;;-7.41;83.04;100096.45;106542;1232;98097;-78
2022/12/15 09:01:09;;;;;;;239.10;76.60;;;;;;;-7.35;83.13;100100.21;106512;1234;139329;-76
2022/12/15 09:03:35;;;;;;;242.10;74.10;;;;;;;-7.29;83.00;100098.95;106635;1237;98598;-77
2022/12/15 09:06:02;;;;;;;236.90;75.80;;;;;;;-7.21;83.11;100098.57;106490;1236;96641;-79
2022/12/15 09:08:29;;;;;;;241.50;79.40;;;;;;;-7.13;83.18;100102.20;106395;1235;139319;-80
2022/12/15 09:10:57;;;;;;;249.00;79.70;;;;;;;-7.04;83.27;100103.08;106683;1238;96598;-78
2022/12/15 09:13:22;;;;;;;247.70;76.20;;;;;;;-6.96;83.40;100106.17;106588;1237;139183;-76
2022/12/15 09:16:02;;;;;;;244.10;77.00;;;;;;;-6.88;83.37;100104.58;106726;1244;97818;-77
2022/12/15 09:18:28;;;;;;;223.20;74.80;;;;;;;-6.80;83.26;100100.71;106393;1243;139257;-78
2022/12/15 09:20:54;;;;;;;230.90;77.20;;;;;;;-6.70;83.44;100092.89;106461;1246;97756;-77
2022/12/15 09:23:20;;;;;;;235.30;77.10;;;;;;;-6.64;83.36;100096.48;106705;1238;97732;-78
2022/12/15 09:25:46;;;;;;;238.10;75.60;;;;;;;-6.57;83.46;100093.98;106579;1239;139035;-78
2022/12/15 09:28:13;;;;;;;248.70;81.60;;;;;;;-6.50;83.49;100094.96;106698;1242;97781;-79
2022/12/15 09:30:38;;;;;;;230.20;78.00;;;;;;;-6.45;83.48;100096.27;106641;1253;139427;-76
2022/12/15 09:33:04;;;;;;;241.10;74.60;;;;;;;-6.40;83.43;100094.44;106725;1235;97672;-76
2022/12/15 09:35:29;;;;;;;234.10;76.70;;;;;;;-6.34;83.78;100094.54;106616;1235;107436;-75
2022/12/15 09:37:58;;;;;;;229.30;75.50;;;;;;;-6.27;83.69;100096.91;106332;1236;139274;-79
2022/12/15 09:40:24;;;;;;;222.60;76.80;;;;;;;-6.20;83.70;100106.22;106614;1237;97724;-79
2022/12/15 09:42:55;;;;;;;243.60;77.40;;;;;;;-6.14;83.63;100110.65;106412;1234;139519;-77
2022/12/15 09:45:23;;;;;;;;;;;;;;;-6.06;83.85;100111.30;106701;1233;100272;-79
2022/12/15 09:48:03;;;;;;;204.90;68.90;;;;;;;-5.99;83.88;100116.27;106662;1236;107878;-79
2022/12/15 09:50:35;;;;;;;224.40;63.20;;;;;;;-5.90;83.75;100118.13;106451;1233;139657;-78
2022/12/15 09:53:02;;;;;;;244.60;75.40;;;;;;;-5.80;83.90;100118.08;106411;1238;96443;-77
2022/12/15 09:55:32;;;;;;;246.90;76.60;;;;;;;-5.71;83.90;100120.64;106564;1235;139139;-79
2022/12/15 09:58:35;;;;;;;207.60;69.10;;;;;;;-5.63;83.72;100114.14;106729;1240;100184;-78
2022/12/15 10:01:22;;;;;;;227.90;76.20;;;;;;;-5.56;83.88;100109.70;106488;1237;144374;-77
2022/12/15 10:04:10;;;;;;;232.00;71.70;;;;;;;-5.50;83.94;100106.64;106511;1234;97690;-77
2022/12/15 10:06:48;;;;;;;232.10;76.00;;;;;;;-5.41;83.82;100106.23;106474;1233;139160;-78
2022/12/15 10:09:26;;;;;;;219.50;75.90;;;;;;;-5.35;83.92;100107.70;106508;1243;109554;-78
2022/12/15 10:12:05;;;;;;;214.00;74.60;;;;;;;-5.27;84.18;100109.88;106550;1235;99762;-77
2022/12/15 10:14:40;;;;;;;230.40;72.20;;;;;;;-5.18;84.15;100113.11;106506;1234;138896;-79
2022/12/15 10:17:22;;;;;;;214.20;70.20;;;;;;;-5.08;84.19;100116.34;106587;1241;97665;-79
2022/12/15 10:19:51;;;;;;;214.80;69.80;;;;;;;-4.97;84.51;100123.77;106456;1230;139080;-77
2022/12/15 10:22:33;;;;;;;183.00;68.60;;;;;;;-4.87;84.36;100125.27;106579;1236;110228;-77
2022/12/15 10:25:08;;;;;;;214.50;72.00;;;;;;;-4.75;84.38;100123.13;106522;1233;139484;-78
2022/12/15 10:27:59;;;;;;;192.90;66.40;;;;;;;-4.65;84.47;100121.48;106533;1233;111024;-78
2022/12/15 10:30:24;;;;;;;185.10;65.80;;;;;;;-4.55;84.54;100131.16;106415;1241;139408;-76
2022/12/15 10:33:06;;;;;;;200.50;68.50;;;;;;;-4.49;84.43;100133.30;106679;1237;99211;-80
2022/12/15 10:35:34;;;;;;;192.10;62.60;;;;;;;-4.44;84.30;100130.73;106910;1237;111914;-74
2022/12/15 10:38:02;;;;;;;201.30;67.00;;;;;;;-4.40;84.55;100134.79;106566;1243;139218;-76
2022/12/15 10:40:48;;;;;;;188.30;64.90;;;;;;;-4.36;84.43;100133.43;106788;1244;106355;-75
2022/12/15 10:43:24;;;;;;;181.60;57.50;;;;;;;-4.32;84.42;100130.32;106555;1241;139589;-76
2022/12/15 10:46:07;;;;;;;172.10;59.50;;;;;;;-4.28;84.40;100132.10;106667;1233;100874;-77
2022/12/15 10:48:33;;;;;;;156.50;58.00;;;;;;;-4.21;84.44;100129.36;106686;1238;139573;-76
2022/12/15 10:51:19;;;;;;;175.10;59.00;;;;;;;-4.15;84.48;100126.79;106715;1253;97701;-76
2022/12/15 10:53:48;;;;;;;189.90;66.30;;;;;;;-4.05;84.45;100124.77;106750;1241;108066;-73
2022/12/15 10:56:22;;;;;;;181.50;60.30;;;;;;;-4.00;84.97;100125.69;106501;1233;139153;-77
2022/12/15 10:58:51;;;;;;;210.20;71.80;;;;;;;-3.95;84.89;100129.38;106613;1237;97896;-72
2022/12/15 11:01:20;;;;;;;175.00;58.60;;;;;;;-3.89;84.79;100132.02;106651;1243;139583;-73
2022/12/15 11:03:49;;;;;;;174.70;62.60;;;;;;;-3.82;84.66;100134.52;106747;1233;99337;-70
2022/12/15 11:06:23;;;;;;;158.90;59.70;;;;;;;-3.78;84.56;100128.09;106774;1239;106514;-69
2022/12/15 11:08:52;;;;;;;166.00;58.00;;;;;;;-3.72;84.79;100123.06;106642;1233;97737;-79
2022/12/15 11:14:25;;;;;;;169.40;58.90;;;;;;;-3.58;84.91;100120.70;106549;1243;139001;-77
2022/12/15 11:16:56;;;;;;;157.80;54.00;;;;;;;-3.53;84.71;100120.55;106651;1235;98434;-78
2022/12/15 11:19:44;;;;;;;174.50;60.70;;;;;;;-3.46;84.94;100123.02;106545;1235;139229;-77
2022/12/15 11:22:17;;;;;;;145.70;51.00;;;;;;;-3.41;84.71;100119.38;106576;1243;97632;-76
2022/12/15 11:24:58;;;;;;;157.80;55.60;;;;;;;-3.36;84.89;100118.01;106547;1233;139736;-78
2022/12/15 11:27:27;;;;;;;176.60;60.30;;;;;;;-3.32;84.64;100119.60;106672;1236;111332;-76
2022/12/15 11:30:11;;;;;;;181.00;60.80;;;;;;;-3.28;84.64;100129.05;106699;1237;99013;-75
2022/12/15 11:32:41;;;;;;;192.70;65.70;;;;;;;-3.29;84.38;100135.34;106533;1235;138923;-76
2022/12/15 11:35:18;;;;;;;160.20;58.00;;;;;;;-3.28;84.75;100146.00;106454;1235;97726;-77
2022/12/15 11:37:50;;;;;;;172.30;59.30;;;;;;;-3.26;84.84;100154.04;106442;1234;138831;-77
2022/12/15 11:40:37;;;;;;;157.80;56.50;;;;;;;-3.24;84.88;100156.14;106556;1236;111270;-77
2022/12/15 11:43:25;;;;;;;151.80;50.90;;;;;;;-3.23;84.79;100156.14;106509;1237;139511;-79
2022/12/15 11:46:26;;;;;;;156.00;53.00;;;;;;;-3.27;84.84;100158.75;106710;1236;106581;-77
2022/12/15 11:49:24;;;;;;;147.00;55.40;;;;;;;-3.28;84.96;100161.55;106455;1241;139450;-77
2022/12/15 11:52:05;;;;;;;98.20;35.10;;;;;;;-3.30;84.61;100164.33;106594;1235;97672;-77
2022/12/15 11:54:50;;;;;;;104.20;39.80;;;;;;;-3.32;84.73;100166.23;106548;1242;139353;-77
2022/12/15 11:57:31;;;;;;;102.60;37.20;;;;;;;-3.36;84.63;100169.02;106679;1251;98597;-77
2022/12/15 12:00:18;;;;;;;103.30;37.00;;;;;;;-3.35;84.64;100168.31;106821;1247;107956;-78
2022/12/15 12:03:02;;;;;;;119.60;43.50;;;;;;;-3.33;84.56;100170.43;106738;1236;97767;-78
2022/12/15 12:05:51;;;;;;;120.80;46.00;;;;;;;-3.33;84.55;100174.62;106786;1235;98321;-77
2022/12/15 12:08:35;;;;;;;114.70;43.20;;;;;;;-3.37;84.44;100173.90;106550;1246;139557;-78
2022/12/15 12:11:17;;;;;;;127.90;46.80;;;;;;;-3.40;84.51;100174.77;106698;1234;100584;-79
2022/12/15 12:14:11;;;;;;;125.80;46.00;;;;;;;-3.40;84.44;100181.05;106614;1234;139318;-78
2022/12/15 12:16:46;;;;;;;113.50;45.00;;;;;;;-3.42;84.51;100182.95;106646;1242;97607;-77
2022/12/15 12:19:18;;;;;;;128.10;49.00;;;;;;;-3.43;84.30;100192.20;106479;1241;139359;-77
2022/12/15 12:21:46;;;;;;;128.40;47.80;;;;;;;-3.49;84.24;100192.35;106571;1251;112389;-76
2022/12/15 12:24:40;;;;;;;120.40;44.20;;;;;;;-3.51;84.10;100191.64;106528;1248;100344;-78
2022/12/15 12:27:38;;;;;;;120.40;42.30;;;;;;;-3.52;84.19;100189.19;106505;1240;107787;-77
2022/12/15 12:30:17;;;;;;;103.10;37.30;;;;;;;-3.50;84.29;100193.73;106592;1235;97734;-78
2022/12/15 12:32:47;;;;;;;99.30;36.60;;;;;;;-3.47;83.96;100193.05;106529;1236;139072;-79
2022/12/15 12:35:44;;;;;;;97.90;36.20;;;;;;;-3.45;83.98;100190.10;106651;1241;109817;-78
2022/12/15 12:38:11;;;;;;;83.40;31.20;;;;;;;-3.44;84.14;100191.85;106357;1236;139047;-80
2022/12/15 12:40:39;;;;;;;105.40;40.50;;;;;;;-3.43;83.95;100195.00;106475;1234;98012;-80
2022/12/15 12:43:06;;;;;;;86.90;31.30;;;;;;;-3.40;84.28;100192.75;106558;1235;139452;-79
2022/12/15 12:45:51;;;;;;;90.70;34.40;;;;;;;-3.40;83.90;100193.62;106612;1243;97822;-79
2022/12/15 12:48:36;;;;;;;103.30;37.00;;;;;;;-3.43;83.71;100198.14;106632;1234;111092;-78
2022/12/15 12:51:23;;;;;;;92.80;35.20;;;;;;;-3.45;83.46;100196.20;106638;1238;99567;-78
2022/12/15 12:53:49;;;;;;;106.80;36.80;;;;;;;-3.45;83.51;100194.99;106619;1241;107433;-78
2022/12/15 12:56:30;;;;;;;101.70;39.70;;;;;;;-3.46;83.60;100197.42;106388;1237;139281;-77
2022/12/15 12:58:55;;;;;;;104.70;38.50;;;;;;;-3.45;83.87;100191.49;106608;1228;97953;-79
2022/12/15 13:01:29;;;;;;;94.20;32.30;;;;;;;-3.44;83.74;100190.98;106682;1234;139270;-78
2022/12/15 13:04:11;;;;;;;102.60;37.00;;;;;;;-3.43;83.33;100200.24;106440;1237;99355;-77
2022/12/15 13:06:39;;;;;;;120.10;42.90;;;;;;;-3.53;83.50;100204.19;106513;1242;139406;-78
2022/12/15 13:09:16;;;;;;;108.80;40.60;;;;;;;-3.58;83.37;100210.80;106687;1235;97648;-79
2022/12/15 13:11:47;;;;;;;111.50;41.80;;;;;;;-3.64;83.33;100213.38;106638;1233;97714;-78
2022/12/15 13:14:25;;;;;;;118.20;41.40;;;;;;;-3.67;83.39;100213.54;106498;1233;139451;-81
2022/12/15 13:17:15;;;;;;;99.70;35.90;;;;;;;-3.69;83.15;100213.00;106687;1235;99331;-80
2022/12/15 13:19:52;;;;;;;117.30;40.00;;;;;;;-3.70;83.32;100211.77;106599;1233;138884;-80
2022/12/15 13:22:31;;;;;;;111.10;38.10;;;;;;;-3.70;83.77;100219.98;106822;1235;97732;-78
2022/12/15 13:24:56;;;;;;;104.20;38.90;;;;;;;-3.71;83.21;100225.90;106696;1242;139226;-81
2022/12/15 13:27:22;;;;;;;90.70;33.70;;;;;;;-3.71;83.43;100225.20;106611;1233;97711;-78
2022/12/15 13:30:05;;;;;;;90.80;33.70;;;;;;;-3.70;83.46;100223.64;106942;1233;97639;-78
2022/12/15 13:32:36;;;;;;;105.20;37.80;;;;;;;-3.69;83.09;100222.42;106532;1235;138940;-78
2022/12/15 13:35:16;;;;;;;109.10;39.10;;;;;;;-3.68;83.16;100219.64;106719;1233;97763;-77
2022/12/15 13:37:58;;;;;;;98.40;36.80;;;;;;;-3.65;83.41;100222.98;106548;1234;141031;-78
2022/12/15 13:40:48;;;;;;;93.90;35.50;;;;;;;-3.63;83.22;100223.68;106614;1243;99710;-78